createdAt,value
2022-08-22T00:02:45.888Z,19.1
2022-08-22T00:03:00.025Z,18.8
2022-08-22T00:03:04.818Z,19.9
2022-08-22T00:03:15.165Z,16.5
2022-08-22T00:03:57.015Z,16.4
2022-08-22T00:06:03.285Z,16.4
2022-08-22T00:08:09.606Z,16.4
2022-08-22T00:10:25.516Z,16.4
2022-08-22T00:12:25.163Z,16.4
2022-08-22T00:14:31.542Z,16.4
2022-08-22T00:16:37.917Z,16.3
2022-08-22T00:18:44.214Z,16.4
2022-08-22T00:20:50.529Z,16.4
2022-08-22T00:31:24.906Z,16.4
2022-08-22T00:35:39.608Z,16.4
2022-08-22T00:37:43.855Z,16.4
2022-08-22T00:39:50.205Z,16.3
2022-08-22T00:41:59.198Z,16.3
2022-08-22T00:44:05.479Z,16.3
2022-08-22T00:46:11.747Z,16.2
2022-08-22T00:48:18.050Z,16.2
2022-08-22T00:50:24.342Z,16.2
2022-08-22T00:56:46.056Z,16.2
2022-08-22T01:00:58.603Z,16.3
2022-08-22T01:02:03.032Z,16.3
2022-08-22T01:04:09.321Z,16.3
2022-08-22T01:06:15.709Z,16.2
2022-08-22T01:08:21.999Z,16.2
2022-08-22T01:10:31.038Z,16.3
2022-08-22T01:12:37.445Z,16.3
2022-08-22T01:14:43.791Z,16.3
2022-08-22T01:16:50.117Z,16.3
2022-08-22T01:18:56.392Z,16.3
2022-08-22T01:21:02.686Z,16.3
2022-08-22T01:23:09.121Z,16.3
2022-08-22T01:25:18.113Z,16.3
2022-08-22T01:31:37.209Z,16.3
2022-08-22T01:33:43.502Z,16.3
2022-08-22T01:35:49.844Z,16.3
2022-08-22T01:37:56.235Z,16.3
2022-08-22T01:40:05.643Z,16.3
2022-08-22T01:42:11.664Z,16.3
2022-08-22T01:44:17.958Z,16.2
2022-08-22T01:48:30.769Z,16.3
2022-08-22T01:50:37.161Z,16.2
2022-08-22T02:00:09.804Z,16.2
2022-08-22T02:02:16.215Z,16.2
2022-08-22T02:06:28.893Z,16.2
2022-08-22T02:08:37.905Z,16.2
2022-08-22T02:10:44.327Z,16.2
2022-08-22T02:12:50.685Z,16.1
2022-08-22T02:14:56.956Z,16.1
2022-08-22T02:17:03.259Z,16.1
2022-08-22T02:19:09.561Z,16.1
2022-08-22T02:21:15.879Z,16.1
2022-08-22T02:25:31.404Z,16.1
2022-08-22T02:27:37.732Z,16.1
2022-08-22T02:29:44.083Z,16.1
2022-08-22T02:31:50.380Z,16.1
2022-08-22T02:33:56.666Z,16.1
2022-08-22T02:36:03.004Z,16.1
2022-08-22T02:38:12.108Z,16.1
2022-08-22T02:40:18.589Z,16
2022-08-22T02:42:24.811Z,16.1
2022-08-22T02:46:39.006Z,16
2022-08-22T02:50:51.686Z,16
2022-08-22T02:53:00.817Z,16
2022-08-22T02:55:07.113Z,16
2022-08-22T02:57:14.183Z,16
2022-08-22T02:59:33.605Z,15.9
2022-08-22T03:01:40.725Z,16
2022-08-22T03:03:46.291Z,16
2022-08-22T03:05:59.102Z,15.9
2022-08-22T03:08:01.676Z,15.9
2022-08-22T03:10:08.049Z,15.9
2022-08-22T03:12:14.452Z,15.9
2022-08-22T03:14:20.748Z,15.9
2022-08-22T03:16:27.051Z,15.9
2022-08-22T03:18:33.457Z,15.9
2022-08-22T03:20:42.666Z,15.9
2022-08-22T03:29:07.967Z,15.8
2022-08-22T03:33:20.754Z,15.8
2022-08-22T03:35:29.887Z,15.8
2022-08-22T03:37:36.163Z,15.8
2022-08-22T03:41:48.852Z,15.9
2022-08-22T03:43:55.158Z,15.8
2022-08-22T03:46:01.984Z,15.9
2022-08-22T03:48:07.835Z,15.9
2022-08-22T03:50:17.006Z,15.8
2022-08-22T03:54:30.466Z,15.9
2022-08-22T03:55:34.091Z,15.8
2022-08-22T03:57:40.395Z,15.9
2022-08-22T03:59:46.698Z,15.8
2022-08-22T04:01:52.997Z,15.9
2022-08-22T04:04:02.130Z,15.8
2022-08-22T04:06:11.418Z,15.8
2022-08-22T04:08:14.726Z,15.8
2022-08-22T04:10:21.115Z,15.8
2022-08-22T04:12:27.502Z,15.8
2022-08-22T04:14:33.894Z,15.9
2022-08-22T04:16:40.164Z,15.8
2022-08-22T04:18:49.421Z,15.8
2022-08-22T04:31:27.662Z,15.9
2022-08-22T04:33:36.805Z,15.9
2022-08-22T04:35:43.206Z,15.9
2022-08-22T04:37:49.571Z,15.9
2022-08-22T04:39:55.951Z,15.9
2022-08-22T04:42:16.301Z,15.9
2022-08-22T04:44:08.669Z,15.9
2022-08-22T04:46:15.096Z,15.9
2022-08-22T04:48:24.211Z,16
2022-08-22T04:50:30.581Z,16
2022-08-22T04:52:36.971Z,16
2022-08-22T04:53:41.508Z,16
2022-08-22T04:55:47.890Z,16.1
2022-08-22T05:00:00.583Z,16.1
2022-08-22T05:02:09.890Z,16
2022-08-22T05:04:16.227Z,16
2022-08-22T05:06:22.638Z,16.1
2022-08-22T05:08:28.999Z,16
2022-08-22T05:10:35.299Z,16
2022-08-22T05:12:41.605Z,16
2022-08-22T05:21:09.527Z,16
2022-08-22T05:33:50.207Z,16
2022-08-22T05:35:58.051Z,16
2022-08-22T05:38:02.746Z,15.9
2022-08-22T05:40:09.112Z,16
2022-08-22T05:42:15.319Z,16
2022-08-22T05:44:21.638Z,16
2022-08-22T05:46:30.761Z,16
2022-08-22T05:48:37.048Z,16
2022-08-22T05:50:43.328Z,16
2022-08-22T05:51:47.834Z,16.1
2022-08-22T05:56:00.446Z,16.2
2022-08-22T05:58:06.741Z,16.2
2022-08-22T06:00:15.873Z,16.3
2022-08-22T06:02:22.169Z,16.3
2022-08-22T06:04:28.472Z,16.3
2022-08-22T06:08:41.024Z,16.3
2022-08-22T06:10:48.071Z,16.3
2022-08-22T06:12:53.602Z,16.3
2022-08-22T06:15:02.628Z,16.3
2022-08-22T06:17:08.917Z,16.4
2022-08-22T06:23:27.770Z,16.5
2022-08-22T06:27:40.429Z,16.6
2022-08-22T06:29:49.439Z,16.8
2022-08-22T06:34:01.990Z,16.7
2022-08-22T06:36:08.309Z,16.8
2022-08-22T06:38:14.586Z,16.9
2022-08-22T06:40:20.960Z,16.9
2022-08-22T06:42:27.165Z,17
2022-08-22T06:44:36.221Z,17.1
2022-08-22T06:46:42.494Z,17.1
2022-08-22T06:51:09.183Z,17.3
2022-08-22T06:55:21.756Z,17.7
2022-08-22T06:59:37.058Z,18.2
2022-08-22T07:05:55.916Z,18.4
2022-08-22T07:08:02.188Z,18.3
2022-08-22T07:10:08.493Z,18.4
2022-08-22T07:12:17.526Z,18.7
2022-08-22T07:14:23.745Z,18.8
2022-08-22T07:16:30.002Z,19.1
2022-08-22T07:18:36.336Z,19.4
2022-08-22T07:20:42.567Z,19.6
2022-08-22T07:22:48.851Z,19.5
2022-08-22T07:24:55.111Z,19.6
2022-08-22T07:27:05.435Z,20
2022-08-22T07:29:10.945Z,19.8
2022-08-22T07:31:16.663Z,19.8
2022-08-22T07:33:26.742Z,19.8
2022-08-22T07:35:29.240Z,19.8
2022-08-22T07:37:35.443Z,19.8
2022-08-22T07:39:41.688Z,19.7
2022-08-22T07:41:50.658Z,19.5
2022-08-22T07:43:56.906Z,19.7
2022-08-22T07:46:03.142Z,19.6
2022-08-22T07:47:07.652Z,19.7
2022-08-22T07:49:13.890Z,19.8
2022-08-22T07:51:20.139Z,20.2
2022-08-22T07:53:26.391Z,20.5
2022-08-22T07:55:35.356Z,20.3
2022-08-22T07:57:41.614Z,20.5
2022-08-22T07:59:47.861Z,21.1
2022-08-22T08:01:54.135Z,21.2
2022-08-22T08:04:00.300Z,21.3
2022-08-22T08:06:06.536Z,21.7
2022-08-22T08:08:15.532Z,22.4
2022-08-22T08:10:21.766Z,23.6
2022-08-22T08:12:27.976Z,23.4
2022-08-22T08:16:40.432Z,24.4
2022-08-22T08:18:46.601Z,24
2022-08-22T08:20:52.788Z,24.7
2022-08-22T08:22:58.962Z,25.9
2022-08-22T08:25:07.885Z,26
2022-08-22T08:27:14.070Z,25.5
2022-08-22T08:29:20.213Z,25
2022-08-22T08:31:26.359Z,25.6
2022-08-22T08:33:32.483Z,26.3
2022-08-22T08:35:42.456Z,26.8
2022-08-22T08:37:44.727Z,27.2
2022-08-22T08:39:53.717Z,27.7
2022-08-22T08:41:59.565Z,27.6
2022-08-22T08:44:05.549Z,26.4
2022-08-22T08:45:09.869Z,26.1
2022-08-22T08:49:24.165Z,27.8
2022-08-22T08:51:29.173Z,26.7
2022-08-22T08:53:37.760Z,26
2022-08-22T08:55:43.667Z,25.6
2022-08-22T08:57:49.566Z,25.7
2022-08-22T08:59:55.474Z,26.1
2022-08-22T09:02:01.334Z,26.6
2022-08-22T09:04:07.258Z,26.4
2022-08-22T09:06:13.116Z,25.9
2022-08-22T09:08:21.692Z,25.8
2022-08-22T09:10:29.391Z,26.2
2022-08-22T09:12:33.410Z,27.4
2022-08-22T09:14:39.271Z,26.3
2022-08-22T09:18:50.980Z,24.7
2022-08-22T09:23:05.420Z,25.5
2022-08-22T09:25:11.279Z,25.3
2022-08-22T09:33:34.731Z,26.5
2022-08-22T09:35:40.621Z,26.5
2022-08-22T09:37:49.158Z,26.1
2022-08-22T09:39:55.487Z,25.7
2022-08-22T09:40:16.136Z,26.7
2022-08-22T09:42:00.855Z,25.8
2022-08-22T09:43:05.115Z,25.6
2022-08-22T09:45:10.945Z,25.2
2022-08-22T09:49:22.667Z,25.5
2022-08-22T09:51:33.182Z,25.7
2022-08-22T09:53:37.075Z,25.2
2022-08-22T09:55:42.940Z,25.7
2022-08-22T09:57:48.803Z,25.7
2022-08-22T09:59:54.656Z,25.6
2022-08-22T10:04:06.386Z,26
2022-08-22T10:06:14.953Z,25.9
2022-08-22T10:08:20.797Z,25.7
2022-08-22T10:10:26.676Z,26
2022-08-22T10:14:38.388Z,26.7
2022-08-22T10:16:44.225Z,26.4
2022-08-22T10:18:52.560Z,26.5
2022-08-22T10:25:10.317Z,26.6
2022-08-22T10:29:21.874Z,26.6
2022-08-22T10:31:27.652Z,26.4
2022-08-22T10:33:33.465Z,27
2022-08-22T10:35:41.984Z,26.7
2022-08-22T10:37:47.749Z,26.1
2022-08-22T10:39:53.554Z,25.6
2022-08-22T10:42:18.564Z,26.1
2022-08-22T10:44:23.975Z,26.3
2022-08-22T10:46:29.776Z,27.3
2022-08-22T10:48:38.277Z,27.1
2022-08-22T10:50:44.044Z,27
2022-08-22T10:52:49.818Z,26.8
2022-08-22T10:54:55.578Z,27.4
2022-08-22T10:57:01.349Z,27.6
2022-08-22T10:59:07.122Z,27.5
2022-08-22T11:01:38.120Z,27.8
2022-08-22T11:03:23.323Z,27.6
2022-08-22T11:05:27.116Z,27.5
2022-08-22T11:07:32.886Z,27
2022-08-22T11:11:44.446Z,26.5
2022-08-22T11:15:56.007Z,26.9
2022-08-22T11:18:04.491Z,27.6
2022-08-22T11:20:10.284Z,27.1
2022-08-22T11:22:16.066Z,27
2022-08-22T11:24:36.785Z,27.1
2022-08-22T11:26:33.463Z,27.3
2022-08-22T11:28:33.464Z,28
2022-08-22T11:30:44.173Z,28.1
2022-08-22T11:32:47.778Z,28.8
2022-08-22T11:34:53.581Z,28.2
2022-08-22T11:36:59.329Z,26.9
2022-08-22T11:38:03.560Z,27
2022-08-22T11:40:09.362Z,26.8
2022-08-22T11:44:20.902Z,27.5
2022-08-22T11:46:29.432Z,29.3
2022-08-22T11:48:35.210Z,29.9
2022-08-22T11:52:51.658Z,28.7
2022-08-22T11:54:52.606Z,28.5
2022-08-22T11:56:58.305Z,28.5
2022-08-22T11:59:04.075Z,28.6
2022-08-22T12:01:17.331Z,28.7
2022-08-22T12:07:29.841Z,29.5
2022-08-22T12:09:35.594Z,29.1
2022-08-22T12:11:41.310Z,29.5
2022-08-22T12:13:47.052Z,29.8
2022-08-22T12:15:55.532Z,28.2
2022-08-22T12:20:16.790Z,27.8
2022-08-22T12:26:24.141Z,29
2022-08-22T12:30:38.368Z,29.1
2022-08-22T12:34:49.853Z,29.6
2022-08-22T12:35:54.061Z,30.5
2022-08-22T12:37:59.797Z,30.6
2022-08-22T12:40:05.585Z,29.8
2022-08-22T12:42:11.277Z,29.1
2022-08-22T12:44:19.750Z,29.4
2022-08-22T12:46:25.456Z,29.4
2022-08-22T12:48:31.196Z,29
2022-08-22T12:50:36.939Z,28.4
2022-08-22T12:52:42.673Z,28.3
2022-08-22T12:59:02.651Z,28.4
2022-08-22T13:01:08.487Z,28.4
2022-08-22T13:03:14.168Z,28.7
2022-08-22T13:05:20.226Z,28.5
2022-08-22T13:07:25.716Z,28.1
2022-08-22T13:09:31.501Z,28.3
2022-08-22T13:11:37.317Z,28.6
2022-08-22T13:13:56.099Z,28.7
2022-08-22T13:15:53.684Z,29
2022-08-22T13:18:04.895Z,29.4
2022-08-22T13:20:03.294Z,29.5
2022-08-22T13:24:16.961Z,29.4
2022-08-22T13:26:33.700Z,28.6
2022-08-22T13:28:29.251Z,29.4
2022-08-22T13:30:37.729Z,29.4
2022-08-22T13:32:44.441Z,29.1
2022-08-22T13:33:45.140Z,29.3
2022-08-22T13:35:52.405Z,29.1
2022-08-22T13:44:16.977Z,29.7
2022-08-22T13:46:22.819Z,30
2022-08-22T13:48:28.770Z,30.2
2022-08-22T13:54:46.085Z,29.3
2022-08-22T13:56:55.194Z,28.4
2022-08-22T13:59:00.449Z,28.6
2022-08-22T14:01:06.259Z,28.5
2022-08-22T14:03:12.075Z,28.8
2022-08-22T14:05:17.922Z,28.8
2022-08-22T14:07:23.851Z,28.4
2022-08-22T14:11:38.110Z,28.9
2022-08-22T14:13:43.965Z,29.2
2022-08-22T14:15:49.806Z,29.4
2022-08-22T14:17:55.683Z,29
2022-08-22T14:20:01.897Z,28.6
2022-08-22T14:22:07.355Z,28.1
2022-08-22T14:24:13.238Z,28.2
2022-08-22T14:26:21.774Z,28.1
2022-08-22T14:28:27.835Z,28.1
2022-08-22T14:30:33.494Z,28.6
2022-08-22T14:32:58.632Z,28.2
2022-08-22T14:35:04.519Z,28.2
2022-08-22T14:37:10.380Z,28.2
2022-08-22T14:39:18.932Z,28.4
2022-08-22T14:41:24.821Z,28.4
2022-08-22T14:43:30.690Z,28.2
2022-08-22T14:49:49.889Z,27.7
2022-08-22T14:51:55.736Z,27.9
2022-08-22T14:54:04.419Z,27.7
2022-08-22T14:56:11.021Z,27.7
2022-08-22T14:58:16.118Z,27.9
2022-08-22T15:00:22.000Z,28.4
2022-08-22T15:02:27.934Z,28.7
2022-08-22T15:04:33.823Z,28.7
2022-08-22T15:06:48.016Z,28.4
2022-08-22T15:08:48.332Z,27.9
2022-08-22T15:10:54.273Z,27.8
2022-08-22T15:13:00.390Z,27.8
2022-08-22T15:15:06.304Z,27.3
2022-08-22T15:19:18.106Z,27.2
2022-08-22T15:21:24.352Z,27.2
2022-08-22T15:23:32.636Z,27.2
2022-08-22T15:25:40.966Z,27
2022-08-22T15:27:44.483Z,26.9
2022-08-22T15:28:53.178Z,27.2
2022-08-22T15:30:54.728Z,27.1
2022-08-22T15:33:00.844Z,27.2
2022-08-22T15:35:06.571Z,27.1
2022-08-22T15:39:21.223Z,27.3
2022-08-22T15:41:31.686Z,27.2
2022-08-22T15:43:34.837Z,28.4
2022-08-22T15:45:39.052Z,30.7
2022-08-22T15:47:44.992Z,32.9
2022-08-22T15:49:50.928Z,34
2022-08-22T15:51:59.557Z,33.2
2022-08-22T15:54:13.106Z,33.5
2022-08-22T15:56:11.380Z,34.3
2022-08-22T15:58:17.277Z,33.3
2022-08-22T16:00:23.186Z,32.7
2022-08-22T16:02:29.083Z,33.4
2022-08-22T16:04:34.955Z,32.7
2022-08-22T16:06:43.545Z,29.4
2022-08-22T16:08:49.406Z,29.2
2022-08-22T16:10:55.260Z,28.9
2022-08-22T16:13:01.139Z,28.4
2022-08-22T16:15:07.005Z,28.2
2022-08-22T16:17:12.866Z,28
2022-08-22T16:19:18.757Z,28.1
2022-08-22T16:21:27.361Z,27.8
2022-08-22T16:23:33.229Z,27.9
2022-08-22T16:25:39.108Z,27.7
2022-08-22T16:26:43.374Z,27.4
2022-08-22T16:28:57.964Z,27.3
2022-08-22T16:33:01.057Z,27.3
2022-08-22T16:35:09.672Z,27.3
2022-08-22T16:37:15.584Z,27.5
2022-08-22T16:39:21.473Z,27.6
2022-08-22T16:41:27.399Z,27.4
2022-08-22T16:43:33.334Z,27.3
2022-08-22T16:45:39.262Z,27.2
2022-08-22T16:47:52.749Z,26.9
2022-08-22T16:49:53.795Z,26.6
2022-08-22T16:51:59.744Z,26.6
2022-08-22T16:54:05.684Z,26.7
2022-08-22T16:56:11.628Z,26.6
2022-08-22T16:58:17.578Z,26.6
2022-08-22T17:00:23.535Z,26.6
2022-08-22T17:02:29.462Z,26.3
2022-08-22T17:04:38.236Z,26.1
2022-08-22T17:06:44.300Z,26.1
2022-08-22T17:08:50.380Z,26.1
2022-08-22T17:10:56.452Z,26
2022-08-22T17:13:02.519Z,25.9
2022-08-22T17:15:08.598Z,25.9
2022-08-22T17:17:14.664Z,25.9
2022-08-22T17:19:23.529Z,26
2022-08-22T17:21:29.624Z,26
2022-08-22T17:23:35.723Z,26
2022-08-22T17:24:40.156Z,25.9
2022-08-22T17:26:46.230Z,25.8
2022-08-22T17:28:52.336Z,25.7
2022-08-22T17:30:58.433Z,25.7
2022-08-22T17:33:07.295Z,25.7
2022-08-22T17:35:13.415Z,25.6
2022-08-22T17:37:19.505Z,25.5
2022-08-22T17:39:25.619Z,25.3
2022-08-22T17:41:31.741Z,25.2
2022-08-22T17:43:49.215Z,25.2
2022-08-22T17:45:43.927Z,25.1
2022-08-22T17:47:52.834Z,25
2022-08-22T17:49:58.925Z,25
2022-08-22T17:52:05.068Z,24.9
2022-08-22T17:54:11.173Z,24.7
2022-08-22T17:56:17.476Z,24.7
2022-08-22T17:58:37.824Z,24.7
2022-08-22T18:00:29.546Z,24.7
2022-08-22T18:02:38.486Z,24.6
2022-08-22T18:04:47.327Z,24.5
2022-08-22T18:06:56.215Z,24.5
2022-08-22T18:09:15.057Z,24.5
2022-08-22T18:13:09.413Z,24.4
2022-08-22T18:15:15.274Z,24.3
2022-08-22T18:19:30.348Z,24
2022-08-22T18:26:08.147Z,23.8
2022-08-22T18:28:14.297Z,23.8
2022-08-22T18:30:23.240Z,23.7
2022-08-22T18:32:29.385Z,23.6
2022-08-22T18:34:38.275Z,23.6
2022-08-22T18:36:41.691Z,23.6
2022-08-22T18:38:47.840Z,23.5
2022-08-22T18:43:00.429Z,23.4
2022-08-22T18:45:09.124Z,23.3
2022-08-22T18:49:21.432Z,23.3
2022-08-22T18:55:39.939Z,23
2022-08-22T18:57:46.103Z,22.8
2022-08-22T19:02:01.296Z,22.7
2022-08-22T19:04:07.432Z,22.6
2022-08-22T19:06:13.608Z,22.6
2022-08-22T19:08:19.784Z,22.5
2022-08-22T19:10:25.937Z,22.5
2022-08-22T19:12:32.131Z,22.4
2022-08-22T19:14:41.092Z,22.2
2022-08-22T19:16:47.225Z,22.2
2022-08-22T19:18:53.406Z,22.1
2022-08-22T19:19:57.860Z,22
2022-08-22T19:22:04.034Z,21.9
2022-08-22T19:24:10.232Z,21.8
2022-08-22T19:26:16.367Z,21.8
2022-08-22T19:28:25.290Z,21.6
2022-08-22T19:30:37.954Z,21.6
2022-08-22T19:36:49.943Z,21.3
2022-08-22T19:41:02.281Z,21.2
2022-08-22T19:53:42.066Z,20.8
2022-08-22T19:55:48.251Z,20.8
2022-08-22T19:57:57.218Z,20.7
2022-08-22T20:00:03.389Z,20.7
2022-08-22T20:02:09.608Z,20.6
2022-08-22T20:04:15.781Z,20.6
2022-08-22T20:06:43.007Z,20.5
2022-08-22T20:08:28.142Z,20.5
2022-08-22T20:10:34.330Z,20.4
2022-08-22T20:12:43.312Z,20.4
2022-08-22T20:14:49.501Z,20.3
2022-08-22T20:16:55.688Z,20.3
2022-08-22T20:20:19.562Z,20.3
2022-08-22T20:22:12.590Z,20.2
2022-08-22T20:24:18.780Z,20.2
2022-08-22T20:26:27.750Z,20.2
2022-08-22T20:28:33.974Z,20.1
2022-08-22T20:30:40.177Z,20.1
2022-08-22T20:37:16.093Z,20
2022-08-22T20:39:05.005Z,20
2022-08-22T20:41:18.591Z,19.9
2022-08-22T20:43:20.210Z,19.8
2022-08-22T20:47:40.674Z,19.7
2022-08-22T20:51:45.079Z,19.5
2022-08-22T20:56:01.807Z,19.3
2022-08-22T20:58:08.020Z,19.3
2022-08-22T21:02:20.504Z,19.2
2022-08-22T21:06:32.964Z,19.1
2022-08-22T21:08:39.211Z,19.1
2022-08-22T21:10:48.220Z,19
2022-08-22T21:12:54.467Z,19
2022-08-22T21:22:23.909Z,18.9
2022-08-22T21:24:32.953Z,18.9
2022-08-22T21:26:39.200Z,18.9
2022-08-22T21:28:45.419Z,18.9
2022-08-22T21:30:51.686Z,18.8
2022-08-22T21:32:57.962Z,18.7
2022-08-22T21:39:19.444Z,18.6
2022-08-22T21:41:25.676Z,18.6
2022-08-22T21:43:31.933Z,18.5
2022-08-22T21:45:38.186Z,18.4
2022-08-22T21:47:44.444Z,18.4
2022-08-22T21:49:50.707Z,18.4
2022-08-22T21:51:56.954Z,18.4
2022-08-22T21:54:18.257Z,18.3
2022-08-22T21:56:12.216Z,18.2
2022-08-22T21:58:35.071Z,18.2
2022-08-22T22:00:24.756Z,18.2
2022-08-22T22:02:31.163Z,18.2
2022-08-22T22:04:37.259Z,18.2
2022-08-22T22:06:43.533Z,18.2
2022-08-22T22:08:52.516Z,18
2022-08-22T22:10:58.791Z,18
2022-08-22T22:13:05.061Z,18
2022-08-22T22:15:30.829Z,18
2022-08-22T22:21:52.380Z,17.9
2022-08-22T22:23:58.804Z,17.8
2022-08-22T22:26:04.934Z,17.8
2022-08-22T22:28:11.214Z,17.7
2022-08-22T22:30:17.457Z,17.7
2022-08-22T22:32:23.734Z,17.6
2022-08-22T22:34:29.995Z,17.6
2022-08-22T22:36:39.368Z,17.5
2022-08-22T22:38:46.047Z,17.5
2022-08-22T22:40:51.598Z,17.5
2022-08-22T22:42:58.041Z,17.6
2022-08-22T22:47:10.416Z,17.5
2022-08-22T22:49:16.672Z,17.4
2022-08-22T22:51:25.681Z,17.4
2022-08-22T22:53:38.550Z,17.4
2022-08-22T22:55:41.643Z,17.4
2022-08-22T22:57:44.484Z,17.5
2022-08-22T22:59:50.779Z,17.5
2022-08-22T23:01:57.049Z,17.3
2022-08-22T23:04:05.858Z,17.3
2022-08-22T23:06:12.334Z,17.2
2022-08-22T23:08:18.628Z,17.2
2022-08-22T23:10:24.913Z,17.2
2022-08-22T23:11:29.391Z,17.1
2022-08-22T23:17:48.248Z,17.1
2022-08-22T23:24:09.854Z,17
2022-08-22T23:28:22.393Z,16.9
2022-08-22T23:30:28.668Z,16.9
2022-08-22T23:32:34.957Z,16.8
2022-08-22T23:41:05.609Z,16.8
2022-08-22T23:43:09.098Z,16.7
2022-08-22T23:45:15.383Z,16.7
2022-08-22T23:47:21.634Z,16.7
2022-08-22T23:49:30.938Z,16.7
2022-08-22T23:51:36.937Z,16.6
2022-08-22T23:53:43.243Z,16.6
2022-08-22T23:55:49.536Z,16.6
2022-08-22T23:57:55.905Z,16.6
